Terminal Aerodrome Forecast
Issued by NWS

Home | Current Version | Previous Version | Graphics & Text | Print | Product List | Glossary On
Versions: 1 2 3 4 5 6 7 8 9 10 11 12 13 14 15 16
000
FTUS43 KFGF 181128
TAFBJI
TAF
KBJI 181128Z 1812/1912 26004KT P6SM SCT250
     FM181700 28005KT P6SM SCT035 BKN200
     FM182000 29006KT P6SM VCTS BKN035CB
     FM190100 VRB03KT P6SM SKC=

USA.gov is the U.S. government's official web portal to all federal, state and local government web resources and services.